sensor_id;sensor_type;location;lat;lon;timestamp;temperature;humidity
1992;DHT22;997;48.448;8.924;2023-02-28T12:35:12;3.60;99.90
1992;DHT22;997;48.448;8.924;2023-02-28T12:38:02;3.60;99.90
1992;DHT22;997;48.448;8.924;2023-02-28T12:40:48;3.70;99.90
1992;DHT22;997;48.448;8.924;2023-02-28T12:43:17;3.80;99.90
1992;DHT22;997;48.448;8.924;2023-02-28T12:45:51;3.80;99.90
1992;DHT22;997;48.448;8.924;2023-02-28T12:48:33;3.70;99.90
1992;DHT22;997;48.448;8.924;2023-02-28T12:51:03;3.70;99.90
1992;DHT22;997;48.448;8.924;2023-02-28T12:53:54;3.70;99.90
1992;DHT22;997;48.448;8.924;2023-02-28T12:56:38;3.70;99.90
1992;DHT22;997;48.448;8.924;2023-02-28T12:59:24;3.70;99.90
1992;DHT22;997;48.448;8.924;2023-02-28T13:05:10;3.70;99.90
1992;DHT22;997;48.448;8.924;2023-02-28T13:10:44;3.80;99.90
1992;DHT22;997;48.448;8.924;2023-02-28T13:13:20;3.90;99.90
1992;DHT22;997;48.448;8.924;2023-02-28T13:16:08;4.00;99.90
1992;DHT22;997;48.448;8.924;2023-02-28T13:18:36;4.20;99.90
1992;DHT22;997;48.448;8.924;2023-02-28T13:21:04;4.30;99.90
1992;DHT22;997;48.448;8.924;2023-02-28T13:26:02;4.90;99.90
1992;DHT22;997;48.448;8.924;2023-02-28T13:28:58;5.00;99.90
1992;DHT22;997;48.448;8.924;2023-02-28T13:31:24;5.00;99.90
1992;DHT22;997;48.448;8.924;2023-02-28T13:36:29;5.40;99.90
1992;DHT22;997;48.448;8.924;2023-02-28T13:38:57;5.70;99.90
1992;DHT22;997;48.448;8.924;2023-02-28T13:44:08;6.00;99.90
1992;DHT22;997;48.448;8.924;2023-02-28T13:46:38;5.90;99.90
1992;DHT22;997;48.448;8.924;2023-02-28T13:49:26;5.90;99.90
1992;DHT22;997;48.448;8.924;2023-02-28T14:03:00;6.00;99.90
1992;DHT22;997;48.448;8.924;2023-02-28T14:05:33;6.00;99.90
1992;DHT22;997;48.448;8.924;2023-02-28T14:08:04;6.10;99.90
1992;DHT22;997;48.448;8.924;2023-02-28T14:10:32;6.30;99.90
1992;DHT22;997;48.448;8.924;2023-02-28T14:13:03;6.50;99.90
1992;DHT22;997;48.448;8.924;2023-02-28T14:15:43;6.60;99.90
1992;DHT22;997;48.448;8.924;2023-02-28T14:20:46;6.80;99.90
1992;DHT22;997;48.448;8.924;2023-02-28T14:28:56;7.20;99.90
1992;DHT22;997;48.448;8.924;2023-02-28T14:31:34;7.40;99.90
1992;DHT22;997;48.448;8.924;2023-02-28T14:36:58;8.30;99.90
1992;DHT22;997;48.448;8.924;2023-02-28T14:39:26;8.70;99.90
1992;DHT22;997;48.448;8.924;2023-02-28T14:41:53;8.90;99.90
1992;DHT22;997;48.448;8.924;2023-02-28T14:44:23;9.00;99.90
1992;DHT22;997;48.448;8.924;2023-02-28T14:46:52;8.90;99.90
1992;DHT22;997;48.448;8.924;2023-02-28T14:51:49;8.50;99.90
1992;DHT22;997;48.448;8.924;2023-02-28T14:54:18;8.60;99.90
1992;DHT22;997;48.448;8.924;2023-02-28T14:56:49;9.00;99.90
1992;DHT22;997;48.448;8.924;2023-02-28T15:01:49;10.10;99.50
1992;DHT22;997;48.448;8.924;2023-02-28T15:04:24;10.40;97.50
1992;DHT22;997;48.448;8.924;2023-02-28T15:07:10;11.10;97.00
1992;DHT22;997;48.448;8.924;2023-02-28T15:09:36;11.10;93.60
1992;DHT22;997;48.448;8.924;2023-02-28T15:12:02;11.10;93.80
1992;DHT22;997;48.448;8.924;2023-02-28T15:14:27;11.00;92.20
1992;DHT22;997;48.448;8.924;2023-02-28T15:17:00;10.60;92.70
1992;DHT22;997;48.448;8.924;2023-02-28T15:19:30;10.10;93.00
1992;DHT22;997;48.448;8.924;2023-02-28T15:22:06;9.80;94.20
1992;DHT22;997;48.448;8.924;2023-02-28T15:27:05;9.30;94.50
1992;DHT22;997;48.448;8.924;2023-02-28T15:29:37;9.50;94.60
1992;DHT22;997;48.448;8.924;2023-02-28T15:32:30;9.40;94.30
1992;DHT22;997;48.448;8.924;2023-02-28T15:34:57;9.10;94.30
1992;DHT22;997;48.448;8.924;2023-02-28T15:37:37;8.50;94.20
1992;DHT22;997;48.448;8.924;2023-02-28T15:43:00;8.30;95.50
1992;DHT22;997;48.448;8.924;2023-02-28T15:45:41;8.20;95.70
1992;DHT22;997;48.448;8.924;2023-02-28T15:48:17;8.10;96.40
1992;DHT22;997;48.448;8.924;2023-02-28T15:50:46;7.70;96.20
1992;DHT22;997;48.448;8.924;2023-02-28T15:53:17;7.30;97.30
1992;DHT22;997;48.448;8.924;2023-02-28T15:55:45;7.20;97.70
1992;DHT22;997;48.448;8.924;2023-02-28T15:58:11;7.20;98.80
1992;DHT22;997;48.448;8.924;2023-02-28T16:00:38;7.00;97.50
1992;DHT22;997;48.448;8.924;2023-02-28T16:03:27;7.10;98.50
1992;DHT22;997;48.448;8.924;2023-02-28T16:06:32;7.00;98.80
1992;DHT22;997;48.448;8.924;2023-02-28T16:08:58;6.70;98.30
1992;DHT22;997;48.448;8.924;2023-02-28T16:11:24;6.50;99.40
1992;DHT22;997;48.448;8.924;2023-02-28T16:13:53;6.40;99.30
1992;DHT22;997;48.448;8.924;2023-02-28T16:16:22;6.10;99.70
1992;DHT22;997;48.448;8.924;2023-02-28T16:18:49;6.00;99.90
1992;DHT22;997;48.448;8.924;2023-02-28T16:21:15;6.00;99.90
1992;DHT22;997;48.448;8.924;2023-02-28T16:23:41;6.10;99.90
1992;DHT22;997;48.448;8.924;2023-02-28T16:26:07;6.30;99.90
1992;DHT22;997;48.448;8.924;2023-02-28T16:28:35;6.50;99.90
1992;DHT22;997;48.448;8.924;2023-02-28T16:31:04;6.80;99.90
1992;DHT22;997;48.448;8.924;2023-02-28T16:33:33;7.10;99.90
1992;DHT22;997;48.448;8.924;2023-02-28T16:36:00;7.30;99.60
1992;DHT22;997;48.448;8.924;2023-02-28T16:38:26;7.30;99.80
1992;DHT22;997;48.448;8.924;2023-02-28T16:41:00;7.40;99.50
1992;DHT22;997;48.448;8.924;2023-02-28T16:43:26;7.50;99.30
1992;DHT22;997;48.448;8.924;2023-02-28T16:45:58;7.20;98.90
1992;DHT22;997;48.448;8.924;2023-02-28T16:48:25;7.00;98.90
1992;DHT22;997;48.448;8.924;2023-02-28T16:50:51;6.50;99.70
1992;DHT22;997;48.448;8.924;2023-02-28T16:53:17;6.00;99.90
1992;DHT22;997;48.448;8.924;2023-02-28T16:55:42;5.80;99.90
1992;DHT22;997;48.448;8.924;2023-02-28T16:58:14;5.60;99.90
1992;DHT22;997;48.448;8.924;2023-02-28T17:00:40;5.40;99.90
1992;DHT22;997;48.448;8.924;2023-02-28T17:03:30;5.30;99.90
1992;DHT22;997;48.448;8.924;2023-02-28T17:05:55;5.30;99.90
1992;DHT22;997;48.448;8.924;2023-02-28T17:08:21;5.10;99.90
1992;DHT22;997;48.448;8.924;2023-02-28T17:10:47;4.80;99.90
1992;DHT22;997;48.448;8.924;2023-02-28T17:13:12;4.80;99.90
1992;DHT22;997;48.448;8.924;2023-02-28T17:15:39;4.70;99.90
1992;DHT22;997;48.448;8.924;2023-02-28T17:18:06;4.80;99.90
1992;DHT22;997;48.448;8.924;2023-02-28T17:20:32;4.70;99.90
1992;DHT22;997;48.448;8.924;2023-02-28T17:22:57;4.60;99.90
1992;DHT22;997;48.448;8.924;2023-02-28T17:25:24;4.40;99.90
1992;DHT22;997;48.448;8.924;2023-02-28T17:27:50;4.40;99.90
1992;DHT22;997;48.448;8.924;2023-02-28T17:30:21;4.20;99.90
1992;DHT22;997;48.448;8.924;2023-02-28T17:32:47;4.20;99.90
1992;DHT22;997;48.448;8.924;2023-02-28T17:35:14;4.10;99.90
1992;DHT22;997;48.448;8.924;2023-02-28T17:37:39;3.90;99.90
1992;DHT22;997;48.448;8.924;2023-02-28T17:40:06;3.90;99.90
1992;DHT22;997;48.448;8.924;2023-02-28T17:42:32;3.80;99.90
1992;DHT22;997;48.448;8.924;2023-02-28T17:44:58;3.80;99.90
1992;DHT22;997;48.448;8.924;2023-02-28T17:47:23;3.80;99.90
1992;DHT22;997;48.448;8.924;2023-02-28T17:49:49;3.80;99.90
1992;DHT22;997;48.448;8.924;2023-02-28T17:52:14;4.00;99.90
1992;DHT22;997;48.448;8.924;2023-02-28T17:54:40;3.90;99.90
1992;DHT22;997;48.448;8.924;2023-02-28T17:57:08;3.80;99.90
1992;DHT22;997;48.448;8.924;2023-02-28T17:59:34;3.70;99.90
1992;DHT22;997;48.448;8.924;2023-02-28T18:02:00;3.70;99.90
1992;DHT22;997;48.448;8.924;2023-02-28T18:04:26;3.60;99.90
1992;DHT22;997;48.448;8.924;2023-02-28T18:06:53;3.70;99.90
1992;DHT22;997;48.448;8.924;2023-02-28T18:09:20;3.50;99.90
1992;DHT22;997;48.448;8.924;2023-02-28T18:11:50;3.40;99.90
1992;DHT22;997;48.448;8.924;2023-02-28T18:14:17;3.40;99.90
1992;DHT22;997;48.448;8.924;2023-02-28T18:16:44;3.40;99.90
1992;DHT22;997;48.448;8.924;2023-02-28T18:19:10;3.50;99.90
1992;DHT22;997;48.448;8.924;2023-02-28T18:21:40;3.40;99.90
1992;DHT22;997;48.448;8.924;2023-02-28T18:24:07;3.30;99.90
1992;DHT22;997;48.448;8.924;2023-02-28T18:26:33;3.20;99.90
1992;DHT22;997;48.448;8.924;2023-02-28T18:28:59;3.20;99.90
1992;DHT22;997;48.448;8.924;2023-02-28T18:31:25;3.30;99.90
1992;DHT22;997;48.448;8.924;2023-02-28T18:33:51;3.10;99.90
1992;DHT22;997;48.448;8.924;2023-02-28T18:36:19;3.20;99.90
1992;DHT22;997;48.448;8.924;2023-02-28T18:38:46;3.00;99.90
1992;DHT22;997;48.448;8.924;2023-02-28T18:41:12;3.00;99.90
1992;DHT22;997;48.448;8.924;2023-02-28T18:43:39;3.00;99.90
